Parish, New York
Current Conditions -  °F | °C
As of 12:18 PM on Thursday 18 Dec 2014 (Local Time) from KFZY Reporting Station
Overcast Overcast  
Wind Chill: -6°   Ceiling: 1400
Heat Index:   Visibility: 10mi
Dew Point: -3°   Wind: 17mph
Humidity: 79%   Direction: 300°WNW
Pressure: 29.99"   Gusts: NA
Location:  43.41°N, 76.13°W
Report Text: KFZY 181718Z AUTO 30015KT 10SM OVC014 00/M03 A2999 RMK AO2 T00001033
Loading
Personal Weather Stations






























Interactive Weather Map New forecast layout! Learn more

10-Day Weather Forecast

Advertisements
Track Severe Weather on mobile